Time;durP1;ratioP1;P1;durP2;ratioP2;P2;SDS_P1;SDS_P2;PMS_P1;PMS_P2;Temp;Humidity;BMP_temperature;BMP_pressure;BME280_temperature;BME280_humidity;BME280_pressure;Samples;Min_cycle;Max_cycle;Signal;HPM_P1;HPM_P2
2023/01/14 00:06:21;;;;;;;81.03;10.07;;;8.70;99.90;;;;;;6006555;23;20765;-90
2023/01/14 00:08:56;;;;;;;80.07;9.77;;;8.70;99.90;;;;;;6076498;23;20525;-89
2023/01/14 00:12:01;;;;;;;72.40;7.43;;;8.60;99.90;;;;;;6185219;23;20141;-89
2023/01/14 00:15:23;;;;;;;81.65;8.18;;;8.60;99.90;;;;;;6159712;23;20489;-89
2023/01/14 00:18:00;;;;;;;80.40;7.43;;;8.60;99.90;;;;;;6187264;23;20180;-89
2023/01/14 00:21:21;;;;;;;82.60;8.32;;;8.60;99.90;;;;;;6187512;23;20133;-90
2023/01/14 00:24:31;;;;;;;;;;;;;;;;;;;;;
2023/01/14 00:27:11;;;;;;;86.57;8.80;;;8.60;99.90;;;;;;6187234;23;20272;-90
2023/01/14 00:29:40;;;;;;;80.10;9.18;;;8.60;99.90;;;;;;6160261;23;20153;-89
2023/01/14 00:32:22;;;;;;;90.35;9.10;;;8.60;99.50;;;;;;6162435;23;20154;-90
2023/01/14 00:34:54;;;;;;;83.10;9.65;;;8.50;99.90;;;;;;6187558;23;20153;-89
2023/01/14 00:37:52;;;;;;;85.95;10.20;;;8.50;99.90;;;;;;6199490;23;20246;-89
2023/01/14 00:40:29;;;;;;;72.35;9.85;;;8.50;99.90;;;;;;6219869;23;20180;-89
2023/01/14 00:43:04;;;;;;;81.57;9.10;;;8.60;99.80;;;;;;6220509;23;20550;-89
2023/01/14 00:45:52;;;;;;;77.85;10.60;;;8.60;98.50;;;;;;6247983;22;20178;-90
2023/01/14 00:49:09;;;;;;;87.15;9.50;;;8.50;99.60;;;;;;6247322;23;20120;-89
2023/01/14 00:51:56;;;;;;;75.47;9.60;;;8.50;99.80;;;;;;6202137;23;20651;-89
2023/01/14 00:54:39;;;;;;;79.28;9.43;;;8.50;99.60;;;;;;6247509;23;20143;-89
2023/01/14 00:57:12;;;;;;;75.30;9.82;;;8.50;99.90;;;;;;6194302;23;20200;-89
2023/01/14 00:59:46;;;;;;;77.32;11.18;;;8.50;99.10;;;;;;6186772;23;20471;-90
2023/01/14 01:02:12;;;;;;;72.13;9.45;;;8.50;99.60;;;;;;6187154;23;20137;-90
2023/01/14 01:04:44;;;;;;;94.77;11.53;;;8.50;99.90;;;;;;6187237;23;20228;-89
2023/01/14 01:07:38;;;;;;;79.53;11.07;;;8.50;99.80;;;;;;6186887;23;20420;-89
2023/01/14 01:13:25;;;;;;;83.28;9.50;;;8.50;99.90;;;;;;6138629;23;20196;-89
2023/01/14 01:16:04;;;;;;;92.65;10.38;;;8.50;99.90;;;;;;6185211;23;20172;-89
2023/01/14 01:18:29;;;;;;;80.43;10.82;;;8.40;99.90;;;;;;6187059;23;20348;-89
2023/01/14 01:21:28;;;;;;;81.53;11.70;;;8.40;99.90;;;;;;6185671;23;20145;-89
2023/01/14 01:23:56;;;;;;;81.50;10.00;;;8.40;99.90;;;;;;6188069;23;20371;-89
2023/01/14 01:26:25;;;;;;;81.40;9.65;;;8.50;99.90;;;;;;6185517;23;20219;-89
2023/01/14 01:29:17;;;;;;;76.68;10.23;;;8.40;99.90;;;;;;6187216;23;20196;-89
2023/01/14 01:32:06;;;;;;;78.07;11.40;;;8.40;99.90;;;;;;6187045;23;20149;-89
2023/01/14 01:34:37;;;;;;;75.45;12.20;;;8.30;99.90;;;;;;6186655;23;20181;-89
2023/01/14 01:37:05;;;;;;;77.35;10.63;;;8.30;99.90;;;;;;6186473;23;20484;-89
2023/01/14 01:39:34;;;;;;;80.15;9.98;;;8.30;99.90;;;;;;6187161;23;20149;-89
2023/01/14 01:42:13;;;;;;;75.65;10.48;;;8.30;99.90;;;;;;6187341;23;20591;-89
2023/01/14 01:45:26;;;;;;;;;;;;;;;;;;;;;
2023/01/14 01:47:57;;;;;;;79.25;9.85;;;8.40;99.90;;;;;;6187110;23;20232;-89
2023/01/14 01:50:56;;;;;;;77.38;9.75;;;8.30;99.90;;;;;;6186344;23;20161;-89
2023/01/14 01:53:44;;;;;;;72.32;8.40;;;8.40;99.90;;;;;;6187342;23;20487;-89
2023/01/14 01:56:47;;;;;;;77.57;8.38;;;8.40;99.90;;;;;;6192773;23;20172;-89
2023/01/14 01:59:48;;;;;;;73.53;6.43;;;8.50;99.90;;;;;;6185434;23;20670;-89
2023/01/14 02:02:28;;;;;;;76.80;6.25;;;8.50;99.50;;;;;;6189605;23;20151;-89
2023/01/14 02:05:06;;;;;;;74.25;6.57;;;8.50;98.70;;;;;;6218118;23;20132;-89
2023/01/14 02:07:37;;;;;;;76.57;7.30;;;8.50;98.10;;;;;;6189350;23;20259;-89
2023/01/14 02:10:06;;;;;;;78.95;7.18;;;8.50;98.00;;;;;;6216431;23;20132;-89
2023/01/14 02:13:02;;;;;;;78.80;7.28;;;8.50;98.90;;;;;;6216038;23;20459;-89
2023/01/14 02:15:54;;;;;;;77.03;6.90;;;8.50;98.30;;;;;;6216131;23;20132;-89
2023/01/14 02:18:39;;;;;;;85.88;9.65;;;8.50;97.10;;;;;;6216119;23;20598;-89
2023/01/14 02:21:21;;;;;;;76.55;6.90;;;8.50;98.00;;;;;;6189246;23;20586;-89
2023/01/14 02:31:13;;;;;;;84.07;9.35;;;8.30;99.50;;;;;;6195033;23;20546;-89
2023/01/14 02:34:34;;;;;;;81.28;8.20;;;8.30;97.70;;;;;;6191036;23;20148;-89
2023/01/14 02:37:53;;;;;;;77.00;6.85;;;8.30;97.80;;;;;;6216903;23;20172;-89
2023/01/14 02:41:06;;;;;;;78.03;6.65;;;8.30;98.60;;;;;;6072104;23;20680;-89
2023/01/14 02:44:08;;;;;;;76.63;7.45;;;8.30;98.00;;;;;;6072125;23;20529;-89
2023/01/14 02:50:31;;;;;;;95.22;9.13;;;8.30;94.70;;;;;;6170777;23;20148;-89
2023/01/14 02:53:20;;;;;;;77.18;7.05;;;8.30;96.20;;;;;;6217324;23;20164;-89
2023/01/14 02:55:47;;;;;;;79.25;7.55;;;8.20;95.80;;;;;;6215847;23;20165;-89
2023/01/14 02:58:34;;;;;;;82.00;7.70;;;8.20;98.20;;;;;;6216060;23;20136;-89
2023/01/14 03:01:29;;;;;;;78.03;7.22;;;8.10;97.60;;;;;;6189138;23;20145;-89
2023/01/14 03:04:22;;;;;;;71.32;7.10;;;8.20;99.90;;;;;;6193943;23;20145;-89
2023/01/14 03:07:23;;;;;;;77.72;6.35;;;8.20;97.30;;;;;;6215828;23;20173;-89
2023/01/14 03:10:10;;;;;;;76.22;8.02;;;8.00;99.10;;;;;;6218176;23;20233;-89
2023/01/14 03:12:42;;;;;;;79.10;7.93;;;7.90;99.90;;;;;;6185557;23;20145;-89
2023/01/14 03:15:41;;;;;;;80.20;10.85;;;7.90;99.90;;;;;;6215997;23;20140;-89
2023/01/14 03:18:28;;;;;;;84.50;11.00;;;7.70;99.90;;;;;;6215566;23;20152;-89
2023/01/14 03:21:07;;;;;;;78.70;10.57;;;7.60;99.90;;;;;;6215571;23;20128;-89
2023/01/14 03:24:05;;;;;;;76.65;11.25;;;7.50;99.90;;;;;;6192088;23;20194;-89
2023/01/14 03:26:50;;;;;;;77.13;9.77;;;7.50;99.90;;;;;;6215499;23;20256;-89
2023/01/14 03:29:26;;;;;;;76.25;9.63;;;7.60;99.90;;;;;;6189442;23;20133;-89
2023/01/14 03:31:59;;;;;;;80.22;10.38;;;7.60;99.90;;;;;;6189009;23;20478;-89
2023/01/14 03:35:20;;;;;;;80.93;12.27;;;7.60;99.90;;;;;;6189763;23;20510;-89
2023/01/14 03:38:40;;;;;;;83.97;11.23;;;7.50;99.90;;;;;;6204002;23;20214;-89
2023/01/14 03:41:08;;;;;;;78.10;10.68;;;7.50;99.90;;;;;;6161988;23;20168;-89
2023/01/14 03:44:09;;;;;;;82.20;10.32;;;7.50;99.90;;;;;;6186834;23;20149;-89
2023/01/14 03:47:05;;;;;;;76.40;10.27;;;7.60;99.90;;;;;;6190581;23;20208;-89
2023/01/14 03:49:33;;;;;;;76.78;9.52;;;7.60;99.90;;;;;;6216213;23;20148;-89
2023/01/14 03:53:43;;;;;;;90.70;11.18;;;7.60;99.90;;;;;;6190877;23;20149;-89
2023/01/14 03:56:30;;;;;;;86.25;10.95;;;7.60;99.90;;;;;;6034462;23;20225;-89
2023/01/14 03:59:20;;;;;;;82.57;9.82;;;7.60;99.90;;;;;;6103433;23;20154;-89
2023/01/14 04:01:55;;;;;;;74.30;11.90;;;7.60;99.90;;;;;;6126807;23;20142;-89
2023/01/14 04:04:32;;;;;;;72.07;12.27;;;7.50;99.90;;;;;;6195472;23;20152;-89
2023/01/14 04:07:05;;;;;;;74.38;11.15;;;7.50;99.90;;;;;;6217357;23;20172;-88
2023/01/14 04:09:31;;;;;;;70.40;8.65;;;7.50;99.90;;;;;;6191198;23;20156;-88
2023/01/14 04:11:57;;;;;;;84.27;10.77;;;7.50;99.90;;;;;;6191241;23;20144;-89
2023/01/14 04:17:31;;;;;;;76.30;9.95;;;7.70;99.90;;;;;;6218095;23;20636;-88
2023/01/14 04:19:59;;;;;;;75.40;9.80;;;7.60;99.90;;;;;;6190862;23;20223;-89
2023/01/14 04:22:30;;;;;;;78.20;9.55;;;7.60;99.90;;;;;;6217582;23;20137;-88
2023/01/14 04:24:56;;;;;;;97.35;11.00;;;7.50;99.90;;;;;;6200585;23;20207;-85
2023/01/14 04:27:22;;;;;;;77.00;9.57;;;7.40;99.90;;;;;;6222199;23;20199;-84
2023/01/14 04:29:48;;;;;;;79.00;9.13;;;7.50;99.90;;;;;;6223282;23;20371;-85
2023/01/14 04:32:14;;;;;;;74.10;10.63;;;7.40;99.90;;;;;;6226257;23;20137;-85
2023/01/14 04:34:39;;;;;;;83.07;12.40;;;7.40;99.90;;;;;;6219361;23;20152;-85
2023/01/14 04:37:07;;;;;;;78.97;10.07;;;7.30;99.90;;;;;;6220809;23;20483;-84
2023/01/14 04:39:33;;;;;;;74.50;10.90;;;7.20;99.90;;;;;;6220894;23;20148;-85
2023/01/14 04:44:44;;;;;;;72.90;13.40;;;7.10;99.90;;;;;;6228644;23;20155;-86
2023/01/14 04:47:10;;;;;;;78.75;13.40;;;7.10;99.90;;;;;;6226622;23;20180;-86
2023/01/14 04:49:36;;;;;;;83.70;15.23;;;7.10;99.90;;;;;;6226029;23;20199;-86
2023/01/14 04:52:02;;;;;;;73.10;12.80;;;7.00;99.90;;;;;;6227626;23;20164;-85
2023/01/14 04:54:27;;;;;;;76.50;17.87;;;7.00;99.90;;;;;;6227792;23;20140;-85
2023/01/14 04:56:53;;;;;;;81.10;14.60;;;7.00;99.90;;;;;;6227597;23;20171;-86
2023/01/14 04:59:18;;;;;;;84.77;19.57;;;7.00;99.90;;;;;;6227390;23;20141;-85
2023/01/14 05:01:44;;;;;;;83.03;18.90;;;6.90;99.90;;;;;;6227284;23;20451;-86
2023/01/14 05:04:10;;;;;;;80.83;16.70;;;7.00;99.90;;;;;;6226940;23;20567;-86
2023/01/14 05:06:35;;;;;;;83.30;17.27;;;7.00;99.90;;;;;;6228069;23;20199;-86
2023/01/14 05:09:01;;;;;;;82.53;20.23;;;7.00;99.90;;;;;;6225741;23;20232;-86
2023/01/14 05:11:27;;;;;;;84.10;17.70;;;6.90;99.90;;;;;;6226364;23;20792;-85
2023/01/14 05:13:52;;;;;;;83.37;22.33;;;7.00;99.90;;;;;;6227941;23;20471;-86
2023/01/14 05:16:18;;;;;;;100.23;21.90;;;6.90;99.90;;;;;;6228014;23;20183;-85
2023/01/14 05:18:44;;;;;;;79.17;22.07;;;6.90;99.90;;;;;;6229855;23;20140;-84
2023/01/14 05:21:10;;;;;;;78.65;23.35;;;6.90;99.90;;;;;;6227478;23;20148;-85
2023/01/14 05:23:37;;;;;;;80.90;27.17;;;6.80;99.90;;;;;;6229565;23;20141;-86
2023/01/14 05:26:03;;;;;;;89.72;27.02;;;6.80;99.90;;;;;;6258093;22;20415;-86
2023/01/14 05:28:32;;;;;;;81.03;31.70;;;6.80;99.90;;;;;;6234686;23;20544;-86
2023/01/14 05:30:58;;;;;;;84.97;34.63;;;6.80;99.90;;;;;;6233428;23;20152;-86
2023/01/14 05:33:23;;;;;;;89.90;35.50;;;6.80;99.90;;;;;;6260582;23;20204;-86
2023/01/14 05:35:54;;;;;;;82.77;34.50;;;6.80;99.90;;;;;;6234062;23;20223;-86
2023/01/14 05:38:20;;;;;;;81.38;29.75;;;6.80;99.90;;;;;;6232827;23;20144;-86
2023/01/14 05:40:45;;;;;;;81.50;26.53;;;6.80;99.90;;;;;;6260103;23;20601;-86
2023/01/14 05:45:55;;;;;;;81.63;29.90;;;6.80;99.90;;;;;;6259576;22;20201;-86
2023/01/14 05:48:23;;;;;;;83.70;29.47;;;6.80;99.90;;;;;;6259072;23;20136;-86
2023/01/14 05:50:54;;;;;;;84.82;31.73;;;6.70;99.90;;;;;;6259902;23;20215;-86
2023/01/14 05:53:20;;;;;;;92.03;42.53;;;6.70;99.90;;;;;;6259262;23;20521;-86
2023/01/14 05:55:46;;;;;;;87.70;47.70;;;6.70;99.90;;;;;;6258898;22;20160;-86
2023/01/14 05:58:12;;;;;;;89.75;47.92;;;6.80;99.90;;;;;;6232078;23;20164;-86
2023/01/14 06:06:23;;;;;;;90.82;48.55;;;6.70;99.90;;;;;;6257808;22;20199;-86
2023/01/14 06:09:12;;;;;;;95.45;48.67;;;6.70;99.90;;;;;;6258951;23;20184;-86
2023/01/14 06:11:42;;;;;;;91.18;51.65;;;6.70;99.90;;;;;;6233149;23;20140;-86
2023/01/14 06:14:07;;;;;;;86.50;50.88;;;6.80;99.90;;;;;;6258995;23;20135;-85
2023/01/14 06:16:40;;;;;;;88.73;54.90;;;6.80;99.90;;;;;;6259155;22;20167;-85
2023/01/14 06:19:11;;;;;;;87.15;53.80;;;6.80;99.90;;;;;;6233311;23;20148;-85
2023/01/14 06:21:38;;;;;;;93.07;47.40;;;6.80;99.90;;;;;;6259917;23;20147;-86
2023/01/14 06:24:04;;;;;;;89.00;44.15;;;6.90;99.90;;;;;;6260014;23;20147;-86
2023/01/14 06:26:31;;;;;;;95.35;35.72;;;7.00;99.90;;;;;;6234322;23;20179;-86
2023/01/14 06:29:02;;;;;;;86.70;40.65;;;7.00;99.90;;;;;;6259966;23;20197;-86
2023/01/14 06:31:28;;;;;;;84.63;42.88;;;7.00;99.90;;;;;;6260508;23;20135;-85
2023/01/14 06:33:55;;;;;;;86.55;41.92;;;7.00;99.90;;;;;;6233476;23;20144;-85
2023/01/14 06:36:21;;;;;;;80.65;40.90;;;7.00;99.90;;;;;;6233008;23;20180;-86
2023/01/14 06:38:47;;;;;;;85.53;46.97;;;7.00;99.90;;;;;;6260305;23;20140;-86
2023/01/14 06:41:13;;;;;;;87.57;49.90;;;7.00;99.90;;;;;;6232835;23;20243;-86
2023/01/14 06:43:41;;;;;;;89.83;49.03;;;7.00;99.90;;;;;;6232686;23;20155;-86
2023/01/14 06:46:12;;;;;;;91.03;41.60;;;7.10;99.90;;;;;;6233439;23;20179;-86
2023/01/14 06:48:38;;;;;;;91.45;49.42;;;7.00;99.90;;;;;;6259949;23;20136;-86
2023/01/14 06:51:12;;;;;;;93.85;52.25;;;7.00;99.90;;;;;;6258456;23;20159;-86
2023/01/14 06:53:37;;;;;;;95.72;52.20;;;7.00;99.90;;;;;;6257150;23;20159;-86
2023/01/14 06:56:10;;;;;;;90.77;51.23;;;7.10;99.90;;;;;;6230867;23;20505;-86
2023/01/14 06:58:36;;;;;;;91.75;50.55;;;7.10;99.90;;;;;;6259297;23;20359;-86
2023/01/14 07:01:03;;;;;;;94.63;48.67;;;7.20;99.90;;;;;;6230818;23;20179;-85
2023/01/14 07:03:29;;;;;;;89.38;50.03;;;7.10;99.90;;;;;;6231895;23;20374;-86
2023/01/14 07:05:55;;;;;;;91.97;56.17;;;7.10;99.90;;;;;;6260821;22;20175;-87
2023/01/14 07:08:22;;;;;;;91.28;49.80;;;7.20;99.90;;;;;;6258325;23;20476;-85
2023/01/14 07:10:51;;;;;;;88.03;50.85;;;7.20;99.90;;;;;;6232076;23;20167;-86
2023/01/14 07:13:18;;;;;;;84.72;50.88;;;7.20;99.90;;;;;;6231884;23;20198;-87
2023/01/14 07:15:44;;;;;;;88.05;57.45;;;7.20;99.90;;;;;;6258607;22;20164;-87
2023/01/14 07:18:11;;;;;;;84.75;37.05;;;7.30;99.90;;;;;;6258601;23;20167;-86
2023/01/14 07:20:37;;;;;;;83.88;39.65;;;7.30;99.90;;;;;;6259124;23;20140;-87
2023/01/14 07:23:03;;;;;;;81.70;35.55;;;7.40;99.90;;;;;;6258335;23;20178;-86
2023/01/14 07:25:28;;;;;;;84.47;31.07;;;7.40;99.90;;;;;;6258094;22;20176;-87
2023/01/14 07:27:54;;;;;;;83.03;44.17;;;7.40;99.90;;;;;;6257655;23;20367;-87
2023/01/14 07:30:20;;;;;;;88.63;44.87;;;7.40;99.90;;;;;;6231650;23;20203;-87
2023/01/14 07:32:46;;;;;;;86.30;47.30;;;7.40;99.90;;;;;;6231496;23;20670;-87
2023/01/14 07:35:12;;;;;;;91.80;44.90;;;7.50;99.90;;;;;;6230438;23;20168;-86
2023/01/14 07:37:38;;;;;;;97.03;52.20;;;7.50;99.90;;;;;;6257349;22;20166;-87
2023/01/14 07:40:04;;;;;;;87.47;55.57;;;7.40;99.90;;;;;;6256946;23;20171;-87
2023/01/14 07:42:30;;;;;;;91.35;41.90;;;7.40;99.90;;;;;;6256990;23;20136;-87
2023/01/14 07:44:56;;;;;;;83.93;33.73;;;7.40;99.90;;;;;;6229873;23;20194;-87
2023/01/14 07:47:22;;;;;;;82.70;35.60;;;7.30;99.90;;;;;;6228857;23;21042;-86
2023/01/14 07:49:47;;;;;;;76.10;28.63;;;7.40;99.90;;;;;;6230410;23;20144;-87
2023/01/14 07:52:13;;;;;;;86.47;19.67;;;7.30;99.90;;;;;;6228637;23;20197;-87
2023/01/14 07:54:40;;;;;;;81.60;17.17;;;7.30;99.90;;;;;;6255825;23;20144;-86
2023/01/14 07:57:11;;;;;;;73.97;16.00;;;7.20;99.90;;;;;;6254790;22;20544;-87
2023/01/14 07:59:40;;;;;;;74.07;12.38;;;7.20;99.90;;;;;;6228141;23;20171;-86
2023/01/14 08:02:10;;;;;;;78.97;19.35;;;7.20;99.90;;;;;;6255711;23;20166;-87
2023/01/14 08:04:36;;;;;;;83.68;18.98;;;7.40;99.90;;;;;;6255704;23;20478;-87
2023/01/14 08:07:05;;;;;;;80.40;21.90;;;7.40;99.90;;;;;;6228381;23;20183;-87
2023/01/14 08:09:31;;;;;;;74.22;19.02;;;7.50;99.90;;;;;;6254428;23;20140;-86
2023/01/14 08:11:57;;;;;;;88.00;20.93;;;7.40;99.90;;;;;;6255428;23;20185;-86
2023/01/14 08:14:22;;;;;;;78.30;14.32;;;7.40;99.90;;;;;;6257485;23;20136;-87
2023/01/14 08:16:48;;;;;;;78.80;16.97;;;7.40;99.90;;;;;;6230147;23;20222;-86
2023/01/14 08:19:16;;;;;;;76.77;16.10;;;7.40;99.90;;;;;;6229938;23;20231;-86
2023/01/14 08:21:42;;;;;;;84.85;19.60;;;7.50;99.90;;;;;;6229928;23;20155;-86
2023/01/14 08:24:08;;;;;;;73.17;14.70;;;7.50;99.90;;;;;;6256665;23;20163;-85
2023/01/14 08:26:36;;;;;;;80.60;14.17;;;7.50;99.90;;;;;;6229880;23;20483;-87
2023/01/14 08:29:02;;;;;;;70.57;12.40;;;7.50;99.90;;;;;;6230199;23;20171;-85
2023/01/14 08:31:28;;;;;;;72.77;14.87;;;7.50;99.90;;;;;;6230417;23;20144;-86
2023/01/14 08:33:53;;;;;;;75.47;19.10;;;7.60;99.90;;;;;;6257619;23;20142;-86
2023/01/14 08:36:19;;;;;;;78.70;18.20;;;7.60;99.90;;;;;;6259269;22;20187;-86
2023/01/14 08:38:50;;;;;;;70.53;16.53;;;7.70;99.90;;;;;;6232551;23;20371;-87
2023/01/14 08:41:17;;;;;;;73.70;19.48;;;7.70;99.90;;;;;;6232394;23;20421;-86
2023/01/14 08:43:47;;;;;;;76.05;25.48;;;7.80;99.90;;;;;;6233138;23;20158;-87
2023/01/14 08:46:14;;;;;;;76.65;23.13;;;7.90;99.90;;;;;;6259755;22;20172;-85
2023/01/14 08:48:40;;;;;;;70.10;20.55;;;7.90;99.90;;;;;;6258666;23;20140;-86
2023/01/14 08:51:08;;;;;;;77.40;29.57;;;8.00;99.90;;;;;;6230758;23;20171;-86
2023/01/14 08:53:35;;;;;;;80.90;42.75;;;8.00;99.90;;;;;;6257999;23;20141;-86
2023/01/14 08:56:03;;;;;;;76.40;31.40;;;8.10;99.90;;;;;;6258919;22;20254;-86
2023/01/14 08:58:29;;;;;;;75.43;32.78;;;8.20;99.90;;;;;;6258506;23;20144;-85
2023/01/14 09:00:59;;;;;;;75.00;32.60;;;8.10;99.90;;;;;;6257421;23;20163;-85
2023/01/14 09:03:27;;;;;;;75.95;31.75;;;8.20;99.90;;;;;;6258285;23;20132;-86
2023/01/14 09:05:57;;;;;;;74.53;31.15;;;8.20;99.90;;;;;;6257808;22;20172;-87
2023/01/14 09:17:10;;;;;;;72.85;29.02;;;8.20;99.90;;;;;;6258896;22;20249;-86
2023/01/14 09:19:52;;;;;;;73.30;31.55;;;8.30;99.90;;;;;;6232081;23;20152;-87
2023/01/14 09:22:25;;;;;;;75.40;30.02;;;8.20;99.90;;;;;;6257312;23;20136;-86
2023/01/14 09:24:51;;;;;;;73.05;27.55;;;8.30;99.90;;;;;;6257845;23;20164;-87
2023/01/14 09:27:18;;;;;;;73.43;27.85;;;8.30;99.90;;;;;;6230897;23;20184;-86
2023/01/14 09:29:43;;;;;;;72.60;29.08;;;8.30;99.90;;;;;;6257449;23;20124;-86
2023/01/14 09:32:11;;;;;;;76.43;27.33;;;8.30;99.90;;;;;;6257308;23;20136;-86
2023/01/14 09:34:41;;;;;;;74.85;32.17;;;8.30;99.90;;;;;;6229853;23;20144;-87
2023/01/14 09:37:08;;;;;;;74.57;29.48;;;8.30;99.90;;;;;;6229669;23;20490;-87
2023/01/14 09:39:34;;;;;;;73.53;29.02;;;8.30;99.90;;;;;;6229586;23;20227;-86
2023/01/14 09:42:23;;;;;;;76.70;31.87;;;8.40;99.90;;;;;;6256541;23;20128;-87
2023/01/14 09:44:51;;;;;;;73.18;29.42;;;8.40;99.90;;;;;;6257415;23;20132;-87
2023/01/14 09:47:23;;;;;;;73.38;27.60;;;8.40;99.90;;;;;;6257847;22;20182;-86
2023/01/14 09:49:55;;;;;;;72.22;26.80;;;8.40;99.90;;;;;;6256558;23;20545;-86
2023/01/14 09:52:45;;;;;;;74.18;33.78;;;8.50;99.90;;;;;;6201570;23;20152;-88
2023/01/14 09:55:31;;;;;;;72.63;29.55;;;8.50;99.90;;;;;;6228762;23;20140;-88
2023/01/14 09:58:14;;;;;;;75.32;34.08;;;8.50;99.90;;;;;;6256400;23;20132;-88
2023/01/14 10:01:08;;;;;;;70.30;23.83;;;8.50;99.90;;;;;;6256296;23;20147;-88
2023/01/14 10:03:39;;;;;;;72.05;27.33;;;8.60;99.90;;;;;;6227154;23;20179;-88
2023/01/14 10:06:17;;;;;;;70.97;24.63;;;8.60;99.90;;;;;;6228777;23;20186;-87
2023/01/14 10:09:01;;;;;;;73.70;30.75;;;8.60;99.90;;;;;;6255165;23;20140;-87
2023/01/14 10:11:31;;;;;;;73.82;30.75;;;8.60;99.90;;;;;;6256245;23;20144;-87
2023/01/14 10:14:16;;;;;;;76.68;26.85;;;8.60;99.90;;;;;;6229297;23;20144;-87
2023/01/14 10:16:45;;;;;;;77.22;27.02;;;8.70;99.90;;;;;;6256795;22;20164;-87
2023/01/14 10:19:27;;;;;;;77.40;29.30;;;8.70;99.90;;;;;;6228934;23;20151;-86
2023/01/14 10:22:17;;;;;;;74.00;28.13;;;8.70;99.90;;;;;;6228498;23;20151;-87
2023/01/14 10:24:43;;;;;;;73.38;24.40;;;8.70;99.90;;;;;;6203546;22;20205;-85
2023/01/14 10:27:16;;;;;;;72.10;24.23;;;8.80;99.90;;;;;;6194682;23;20177;-87
2023/01/14 10:29:42;;;;;;;70.53;23.20;;;8.80;99.90;;;;;;6194028;23;20364;-86
2023/01/14 10:32:12;;;;;;;70.18;22.65;;;8.90;99.90;;;;;;6193081;23;20142;-86
2023/01/14 10:34:42;;;;;;;73.13;25.63;;;8.90;99.90;;;;;;6196339;23;20125;-86
2023/01/14 10:37:10;;;;;;;71.80;25.60;;;8.90;99.90;;;;;;6195647;23;20192;-86
2023/01/14 10:39:38;;;;;;;70.45;20.13;;;8.90;99.90;;;;;;6196575;23;20164;-87
2023/01/14 10:42:05;;;;;;;72.07;20.88;;;9.00;99.90;;;;;;6193677;23;20169;-86
2023/01/14 10:44:33;;;;;;;72.80;20.20;;;9.00;99.90;;;;;;6191986;23;20149;-87
2023/01/14 10:47:08;;;;;;;70.25;18.63;;;9.00;99.90;;;;;;6191186;23;20211;-87
2023/01/14 10:49:57;;;;;;;76.40;27.40;;;9.00;99.90;;;;;;6194026;23;20204;-86
2023/01/14 10:52:28;;;;;;;73.43;22.10;;;9.00;99.90;;;;;;6191141;23;20146;-86
2023/01/14 10:55:00;;;;;;;76.00;25.13;;;9.00;99.90;;;;;;6193317;23;20169;-86
2023/01/14 10:57:29;;;;;;;73.25;19.05;;;9.00;99.90;;;;;;6192857;23;20161;-86
2023/01/14 10:59:58;;;;;;;72.85;19.20;;;9.00;99.90;;;;;;6195346;23;20535;-87
2023/01/14 11:02:33;;;;;;;78.03;18.70;;;9.00;99.90;;;;;;6197585;23;20475;-88
2023/01/14 11:04:59;;;;;;;69.40;19.20;;;9.00;99.90;;;;;;6194828;23;20155;-87
2023/01/14 11:07:26;;;;;;;71.38;14.30;;;9.00;99.90;;;;;;6195018;23;20177;-87
2023/01/14 11:09:54;;;;;;;69.57;15.55;;;9.00;99.90;;;;;;6195764;23;20145;-86
2023/01/14 11:12:33;;;;;;;71.28;16.58;;;9.00;99.90;;;;;;6196532;23;20195;-87
2023/01/14 11:14:59;;;;;;;70.15;16.10;;;9.00;99.90;;;;;;6194756;23;20149;-87
2023/01/14 11:17:31;;;;;;;70.85;14.18;;;9.00;99.90;;;;;;6196209;23;20168;-86
2023/01/14 11:20:23;;;;;;;69.70;11.23;;;9.00;99.90;;;;;;6196470;23;20157;-87
2023/01/14 11:23:00;;;;;;;66.32;10.52;;;9.00;99.90;;;;;;6193848;23;20189;-87
2023/01/14 11:25:27;;;;;;;67.15;12.68;;;9.00;99.90;;;;;;6198428;23;20183;-87
2023/01/14 11:27:54;;;;;;;67.93;13.18;;;9.00;99.90;;;;;;6225264;23;20143;-87
2023/01/14 11:30:22;;;;;;;69.60;12.48;;;9.10;99.90;;;;;;6224149;23;20136;-86
2023/01/14 11:32:51;;;;;;;68.40;12.35;;;9.00;99.90;;;;;;6196381;23;20248;-88
2023/01/14 11:35:24;;;;;;;67.32;9.63;;;9.00;99.90;;;;;;6222208;23;20164;-86
2023/01/14 11:37:53;;;;;;;68.78;14.23;;;9.10;99.90;;;;;;6195482;23;20226;-88
2023/01/14 11:41:28;;;;;;;67.43;13.25;;;9.10;99.90;;;;;;6195750;23;20586;-87
2023/01/14 11:43:13;;;;;;;69.20;13.05;;;9.10;99.90;;;;;;6221721;23;20149;-86
2023/01/14 11:45:38;;;;;;;68.13;10.18;;;9.10;99.90;;;;;;6220302;23;20164;-88
2023/01/14 11:48:23;;;;;;;67.67;12.47;;;9.10;99.90;;;;;;6221161;23;20597;-86
2023/01/14 11:51:03;;;;;;;68.72;13.48;;;9.10;99.90;;;;;;6221178;23;20555;-88
2023/01/14 11:53:47;;;;;;;66.63;13.02;;;9.10;99.90;;;;;;6193265;23;20148;-87
2023/01/14 11:56:33;;;;;;;67.82;14.68;;;9.10;99.90;;;;;;6219592;23;20191;-88
2023/01/14 11:59:16;;;;;;;79.10;30.27;;;9.10;99.90;;;;;;6218793;23;20635;-87
2023/01/14 12:01:51;;;;;;;68.75;14.85;;;9.10;99.90;;;;;;6193818;23;20141;-87
2023/01/14 12:04:24;;;;;;;67.45;14.30;;;9.10;99.90;;;;;;6193722;23;20286;-87
2023/01/14 12:06:59;;;;;;;68.65;13.50;;;9.10;99.90;;;;;;6192313;23;20234;-87
2023/01/14 12:09:37;;;;;;;67.03;14.65;;;9.10;99.90;;;;;;6191676;23;20651;-87
2023/01/14 12:12:12;;;;;;;68.95;15.50;;;9.10;99.90;;;;;;6193102;23;20148;-87
2023/01/14 12:17:38;;;;;;;67.95;11.63;;;9.10;99.90;;;;;;6220965;23;20215;-87
2023/01/14 12:20:13;;;;;;;67.28;12.65;;;9.10;99.90;;;;;;6221251;23;20129;-86
2023/01/14 12:22:53;;;;;;;67.63;11.05;;;9.20;99.90;;;;;;6194945;23;20148;-87
2023/01/14 12:25:28;;;;;;;67.57;11.68;;;9.20;99.90;;;;;;6221731;23;20162;-88
2023/01/14 12:28:03;;;;;;;68.20;11.10;;;9.20;99.90;;;;;;6194988;23;20151;-87
2023/01/14 12:30:59;;;;;;;67.85;13.90;;;9.20;99.90;;;;;;6220366;23;20160;-86
2023/01/14 12:33:31;;;;;;;68.85;11.30;;;9.20;99.90;;;;;;6221278;23;20578;-87
2023/01/14 12:36:16;;;;;;;67.07;10.93;;;9.20;99.90;;;;;;6220490;23;20541;-87
2023/01/14 12:47:46;;;;;;;66.78;10.40;;;9.20;99.90;;;;;;6219607;23;20225;-87
2023/01/14 12:50:15;;;;;;;71.30;11.52;;;9.30;99.90;;;;;;6220475;23;20220;-87
2023/01/14 12:52:52;;;;;;;66.75;9.80;;;9.30;99.90;;;;;;6218973;23;20141;-87
2023/01/14 12:55:24;;;;;;;69.30;11.98;;;9.30;99.90;;;;;;6192440;23;20235;-87
2023/01/14 12:57:53;;;;;;;69.43;10.18;;;9.30;99.90;;;;;;6192609;23;20206;-87
2023/01/14 13:00:32;;;;;;;65.68;9.45;;;9.40;99.90;;;;;;6192605;23;20486;-87
2023/01/14 13:03:03;;;;;;;65.68;8.15;;;9.30;99.90;;;;;;6199111;23;20152;-87
2023/01/14 13:05:37;;;;;;;66.75;11.00;;;9.40;99.90;;;;;;6193890;23;20148;-86
2023/01/14 13:08:07;;;;;;;65.60;8.90;;;9.40;99.90;;;;;;6219182;23;20125;-87
2023/01/14 13:10:39;;;;;;;66.43;11.43;;;9.40;99.90;;;;;;6218226;23;20191;-87
2023/01/14 13:13:17;;;;;;;69.95;10.55;;;9.40;99.90;;;;;;6218516;23;20124;-86
2023/01/14 13:15:43;;;;;;;66.93;9.25;;;9.40;99.90;;;;;;6191792;23;20214;-87
2023/01/14 13:18:35;;;;;;;67.27;11.17;;;9.50;99.90;;;;;;6192188;23;20489;-87
2023/01/14 13:21:02;;;;;;;67.57;8.63;;;9.40;99.90;;;;;;6187277;23;20372;-87
2023/01/14 13:23:37;;;;;;;67.07;12.65;;;9.50;99.90;;;;;;6190631;23;20155;-88
2023/01/14 13:26:31;;;;;;;65.75;8.65;;;9.50;99.90;;;;;;6217367;23;20207;-87
2023/01/14 13:29:15;;;;;;;67.25;9.20;;;9.60;99.90;;;;;;6192029;23;20179;-88
2023/01/14 13:31:45;;;;;;;66.05;8.27;;;9.60;99.90;;;;;;6191429;23;20586;-88
2023/01/14 13:34:23;;;;;;;65.57;7.63;;;9.70;99.90;;;;;;6192261;23;20479;-87
2023/01/14 13:37:04;;;;;;;68.25;8.23;;;9.70;99.90;;;;;;6190979;23;20553;-87
2023/01/14 13:39:32;;;;;;;65.65;9.00;;;9.60;99.90;;;;;;6190785;23;20235;-87
2023/01/14 13:42:27;;;;;;;67.30;13.18;;;9.70;99.90;;;;;;6217641;23;20140;-90
2023/01/14 13:44:55;;;;;;;65.82;8.20;;;9.70;99.90;;;;;;6187550;23;20163;-87
2023/01/14 13:47:26;;;;;;;66.15;9.93;;;9.70;99.90;;;;;;6217261;23;20506;-88
2023/01/14 13:50:01;;;;;;;66.50;10.15;;;9.70;99.90;;;;;;6217328;23;20129;-87
2023/01/14 13:52:29;;;;;;;66.80;8.50;;;9.70;99.90;;;;;;6190562;23;20151;-88
2023/01/14 13:55:20;;;;;;;65.88;7.28;;;9.70;99.90;;;;;;6190047;23;20526;-88
2023/01/14 13:57:51;;;;;;;65.15;8.02;;;9.80;99.90;;;;;;6184158;23;20196;-88
2023/01/14 14:00:37;;;;;;;68.20;8.20;;;9.80;99.90;;;;;;6191122;23;20491;-88
2023/01/14 14:03:34;;;;;;;65.15;7.72;;;9.80;99.90;;;;;;6190200;23;20590;-88
2023/01/14 14:06:19;;;;;;;66.53;9.82;;;9.80;99.90;;;;;;6190417;23;20510;-91
2023/01/14 14:09:19;;;;;;;66.53;6.93;;;9.90;99.90;;;;;;6216820;23;20141;-88
2023/01/14 14:12:11;;;;;;;65.03;7.18;;;9.90;99.90;;;;;;6185457;23;20224;-88
2023/01/14 14:15:00;;;;;;;65.53;8.05;;;9.90;99.90;;;;;;6215999;23;20153;-89
2023/01/14 14:17:35;;;;;;;67.13;8.27;;;9.90;99.90;;;;;;6216725;23;20244;-88